Terminal Aerodrome Forecast
Issued by NWS

Current Version | Previous Version | Graphics & Text | Print | Product List | Glossary On
Versions: 1 2 3 4 5 6 7 8 9 10 11 12 13 14 15 16 17 18 19 20 21 22 23 24 25 26 27 28 29
000
FTUS41 KILN 261121
TAFLUK
TAF
KLUK 261121Z 2612/2712 00000KT P6SM BKN250
      TEMPO 2612/2613 5SM BR
     FM261400 25005KT P6SM SCT040 SCT250
     FM262100 32005KT P6SM VCSH BKN040
      TEMPO 2622/2624 5SM -SHRA BR BKN030
     FM270100 02004KT P6SM SCT030 BKN150=

USA.gov is the U.S. government's official web portal to all federal, state and local government web resources and services.